Terminal Aerodrome Forecast
Issued by NWS

Home | Current Version | Previous Version | Text Only | Print | Product List | Glossary Off
Versions: 1 2 3 4 5 6 7 8 9 10 11 12

000
FTUS43 KBIS 221122
TAFJMS
TAF
KJMS 221122Z 2212/2312 15004KT P6SM SKC
     FM222000 15010KT P6SM FEW080
     FM230200 15005KT P6SM FEW250=

USA.gov is the U.S. government's official web portal to all federal, state and local government web resources and services.